sensor_id;sensor_type;location;lat;lon;timestamp;temperature;humidity
14172;DHT22;7165;52.388;4.928;2023-05-21T00:00:29;14.10;99.90
14172;DHT22;7165;52.388;4.928;2023-05-21T00:02:56;14.20;99.90
14172;DHT22;7165;52.388;4.928;2023-05-21T00:05:23;14.20;99.90
14172;DHT22;7165;52.388;4.928;2023-05-21T00:07:49;14.30;99.90
14172;DHT22;7165;52.388;4.928;2023-05-21T00:10:17;14.30;99.90
14172;DHT22;7165;52.388;4.928;2023-05-21T00:12:45;14.30;99.90
14172;DHT22;7165;52.388;4.928;2023-05-21T00:15:12;14.30;99.90
14172;DHT22;7165;52.388;4.928;2023-05-21T00:17:38;14.30;99.90
14172;DHT22;7165;52.388;4.928;2023-05-21T00:20:05;14.40;99.90
14172;DHT22;7165;52.388;4.928;2023-05-21T00:22:33;14.30;99.90
14172;DHT22;7165;52.388;4.928;2023-05-21T00:25:01;14.40;99.90
14172;DHT22;7165;52.388;4.928;2023-05-21T00:27:27;14.40;99.90
14172;DHT22;7165;52.388;4.928;2023-05-21T00:29:55;14.30;99.90
14172;DHT22;7165;52.388;4.928;2023-05-21T00:32:22;14.40;99.90
14172;DHT22;7165;52.388;4.928;2023-05-21T00:34:48;14.40;99.90
14172;DHT22;7165;52.388;4.928;2023-05-21T00:37:15;14.40;99.90
14172;DHT22;7165;52.388;4.928;2023-05-21T00:39:41;14.40;99.90
14172;DHT22;7165;52.388;4.928;2023-05-21T00:42:08;14.40;99.90
14172;DHT22;7165;52.388;4.928;2023-05-21T00:44:34;14.40;99.90
14172;DHT22;7165;52.388;4.928;2023-05-21T00:47:02;14.50;99.90
14172;DHT22;7165;52.388;4.928;2023-05-21T00:49:30;14.40;99.90
14172;DHT22;7165;52.388;4.928;2023-05-21T00:51:57;14.40;99.90
14172;DHT22;7165;52.388;4.928;2023-05-21T00:54:25;14.40;99.90
14172;DHT22;7165;52.388;4.928;2023-05-21T00:56:52;14.50;99.90
14172;DHT22;7165;52.388;4.928;2023-05-21T00:59:18;14.40;99.90
14172;DHT22;7165;52.388;4.928;2023-05-21T01:01:45;14.50;99.90
14172;DHT22;7165;52.388;4.928;2023-05-21T01:04:19;14.40;99.90
14172;DHT22;7165;52.388;4.928;2023-05-21T01:06:46;14.50;99.90
14172;DHT22;7165;52.388;4.928;2023-05-21T01:09:12;14.50;99.90
14172;DHT22;7165;52.388;4.928;2023-05-21T01:11:39;14.50;99.90
14172;DHT22;7165;52.388;4.928;2023-05-21T01:14:06;14.50;99.90
14172;DHT22;7165;52.388;4.928;2023-05-21T01:16:34;14.50;99.90
14172;DHT22;7165;52.388;4.928;2023-05-21T01:19:01;14.50;99.90
14172;DHT22;7165;52.388;4.928;2023-05-21T01:21:31;14.50;99.90
14172;DHT22;7165;52.388;4.928;2023-05-21T01:24:00;14.50;99.90
14172;DHT22;7165;52.388;4.928;2023-05-21T01:26:29;14.50;99.90
14172;DHT22;7165;52.388;4.928;2023-05-21T01:28:57;14.50;99.90
14172;DHT22;7165;52.388;4.928;2023-05-21T01:31:25;14.60;99.90
14172;DHT22;7165;52.388;4.928;2023-05-21T01:33:52;14.50;99.90
14172;DHT22;7165;52.388;4.928;2023-05-21T01:36:22;14.50;99.90
14172;DHT22;7165;52.388;4.928;2023-05-21T01:38:52;14.50;99.90
14172;DHT22;7165;52.388;4.928;2023-05-21T01:41:22;14.50;99.90
14172;DHT22;7165;52.388;4.928;2023-05-21T01:43:50;14.50;99.90
14172;DHT22;7165;52.388;4.928;2023-05-21T01:46:19;14.50;99.90
14172;DHT22;7165;52.388;4.928;2023-05-21T01:48:46;14.60;99.90
14172;DHT22;7165;52.388;4.928;2023-05-21T01:51:13;14.60;99.90
14172;DHT22;7165;52.388;4.928;2023-05-21T01:53:40;14.50;99.90
14172;DHT22;7165;52.388;4.928;2023-05-21T01:56:07;14.50;99.90
14172;DHT22;7165;52.388;4.928;2023-05-21T01:58:36;14.50;99.90
14172;DHT22;7165;52.388;4.928;2023-05-21T02:01:03;14.60;99.90
14172;DHT22;7165;52.388;4.928;2023-05-21T02:03:30;14.50;99.90
14172;DHT22;7165;52.388;4.928;2023-05-21T02:05:56;14.60;99.90
14172;DHT22;7165;52.388;4.928;2023-05-21T02:08:23;14.50;99.90
14172;DHT22;7165;52.388;4.928;2023-05-21T02:10:49;14.50;99.90
14172;DHT22;7165;52.388;4.928;2023-05-21T02:13:16;14.60;99.90
14172;DHT22;7165;52.388;4.928;2023-05-21T02:15:46;14.60;99.90
14172;DHT22;7165;52.388;4.928;2023-05-21T02:18:12;14.50;99.90
14172;DHT22;7165;52.388;4.928;2023-05-21T02:20:40;14.60;99.90
14172;DHT22;7165;52.388;4.928;2023-05-21T02:23:07;14.60;99.90
14172;DHT22;7165;52.388;4.928;2023-05-21T02:25:34;14.50;99.90
14172;DHT22;7165;52.388;4.928;2023-05-21T02:28:00;14.60;99.90
14172;DHT22;7165;52.388;4.928;2023-05-21T02:30:27;14.50;99.90
14172;DHT22;7165;52.388;4.928;2023-05-21T02:32:55;14.60;99.90
14172;DHT22;7165;52.388;4.928;2023-05-21T02:35:23;14.50;99.90
14172;DHT22;7165;52.388;4.928;2023-05-21T02:37:49;14.50;99.90
14172;DHT22;7165;52.388;4.928;2023-05-21T02:40:16;14.60;99.90
14172;DHT22;7165;52.388;4.928;2023-05-21T02:42:42;14.50;99.90
14172;DHT22;7165;52.388;4.928;2023-05-21T02:45:09;14.50;99.90
14172;DHT22;7165;52.388;4.928;2023-05-21T02:47:36;14.50;99.90
14172;DHT22;7165;52.388;4.928;2023-05-21T02:50:05;14.50;99.90
14172;DHT22;7165;52.388;4.928;2023-05-21T02:52:32;14.50;99.90
14172;DHT22;7165;52.388;4.928;2023-05-21T02:54:58;14.50;99.90
14172;DHT22;7165;52.388;4.928;2023-05-21T02:57:25;14.50;99.90
14172;DHT22;7165;52.388;4.928;2023-05-21T02:59:51;14.50;99.90
14172;DHT22;7165;52.388;4.928;2023-05-21T03:02:18;14.60;99.90
14172;DHT22;7165;52.388;4.928;2023-05-21T03:04:44;14.60;99.90
14172;DHT22;7165;52.388;4.928;2023-05-21T03:07:13;14.50;99.90
14172;DHT22;7165;52.388;4.928;2023-05-21T03:09:42;14.50;99.90
14172;DHT22;7165;52.388;4.928;2023-05-21T03:12:09;14.50;99.90
14172;DHT22;7165;52.388;4.928;2023-05-21T03:14:35;14.50;99.90
14172;DHT22;7165;52.388;4.928;2023-05-21T03:17:02;14.50;99.90
14172;DHT22;7165;52.388;4.928;2023-05-21T03:19:30;14.50;99.90
14172;DHT22;7165;52.388;4.928;2023-05-21T03:21:59;14.50;99.90
14172;DHT22;7165;52.388;4.928;2023-05-21T03:24:26;14.50;99.90
14172;DHT22;7165;52.388;4.928;2023-05-21T03:26:53;14.50;99.90
14172;DHT22;7165;52.388;4.928;2023-05-21T03:29:20;14.50;99.90
14172;DHT22;7165;52.388;4.928;2023-05-21T03:31:46;14.50;99.90
14172;DHT22;7165;52.388;4.928;2023-05-21T03:34:13;14.50;99.90
14172;DHT22;7165;52.388;4.928;2023-05-21T03:36:40;14.50;99.90
14172;DHT22;7165;52.388;4.928;2023-05-21T03:39:07;14.50;99.90
14172;DHT22;7165;52.388;4.928;2023-05-21T03:41:35;14.40;99.90
14172;DHT22;7165;52.388;4.928;2023-05-21T03:44:01;14.50;99.90
14172;DHT22;7165;52.388;4.928;2023-05-21T03:46:28;14.40;99.90
14172;DHT22;7165;52.388;4.928;2023-05-21T03:48:54;14.40;99.90
14172;DHT22;7165;52.388;4.928;2023-05-21T03:51:22;14.40;99.90
14172;DHT22;7165;52.388;4.928;2023-05-21T03:53:49;14.40;99.90
14172;DHT22;7165;52.388;4.928;2023-05-21T03:56:15;14.40;99.90
14172;DHT22;7165;52.388;4.928;2023-05-21T03:58:43;14.40;99.90
14172;DHT22;7165;52.388;4.928;2023-05-21T04:01:11;14.40;99.90
14172;DHT22;7165;52.388;4.928;2023-05-21T04:03:37;14.40;99.90
14172;DHT22;7165;52.388;4.928;2023-05-21T04:06:04;14.40;99.90
14172;DHT22;7165;52.388;4.928;2023-05-21T04:08:31;14.40;99.90
14172;DHT22;7165;52.388;4.928;2023-05-21T04:10:57;14.40;99.90
14172;DHT22;7165;52.388;4.928;2023-05-21T04:13:24;14.40;99.90
14172;DHT22;7165;52.388;4.928;2023-05-21T04:15:53;14.40;99.90
14172;DHT22;7165;52.388;4.928;2023-05-21T04:18:20;14.50;99.90
14172;DHT22;7165;52.388;4.928;2023-05-21T04:20:48;14.40;99.90
14172;DHT22;7165;52.388;4.928;2023-05-21T04:23:15;14.40;99.90
14172;DHT22;7165;52.388;4.928;2023-05-21T04:25:41;14.50;99.90
14172;DHT22;7165;52.388;4.928;2023-05-21T04:28:08;14.40;99.90
14172;DHT22;7165;52.388;4.928;2023-05-21T04:30:35;14.40;99.90
14172;DHT22;7165;52.388;4.928;2023-05-21T04:33:03;14.50;99.90
14172;DHT22;7165;52.388;4.928;2023-05-21T04:35:29;14.50;99.90
14172;DHT22;7165;52.388;4.928;2023-05-21T04:37:56;14.50;99.90
14172;DHT22;7165;52.388;4.928;2023-05-21T04:40:23;14.50;99.90
14172;DHT22;7165;52.388;4.928;2023-05-21T04:42:49;14.50;99.90
14172;DHT22;7165;52.388;4.928;2023-05-21T04:45:16;14.50;99.90
14172;DHT22;7165;52.388;4.928;2023-05-21T04:47:43;14.50;99.90
14172;DHT22;7165;52.388;4.928;2023-05-21T04:50:11;14.50;99.90
14172;DHT22;7165;52.388;4.928;2023-05-21T04:52:38;14.50;99.90
14172;DHT22;7165;52.388;4.928;2023-05-21T04:55:05;14.50;99.90
14172;DHT22;7165;52.388;4.928;2023-05-21T04:57:32;14.50;99.90
14172;DHT22;7165;52.388;4.928;2023-05-21T04:59:59;14.50;99.90
14172;DHT22;7165;52.388;4.928;2023-05-21T05:02:26;14.50;99.90
14172;DHT22;7165;52.388;4.928;2023-05-21T05:04:53;14.50;99.90
14172;DHT22;7165;52.388;4.928;2023-05-21T05:07:21;14.50;99.90
14172;DHT22;7165;52.388;4.928;2023-05-21T05:09:47;14.60;99.90
14172;DHT22;7165;52.388;4.928;2023-05-21T05:12:14;14.60;99.90
14172;DHT22;7165;52.388;4.928;2023-05-21T05:14:40;14.60;99.90
14172;DHT22;7165;52.388;4.928;2023-05-21T05:17:07;14.70;99.90
14172;DHT22;7165;52.388;4.928;2023-05-21T05:19:34;14.70;99.90
14172;DHT22;7165;52.388;4.928;2023-05-21T05:22:01;14.80;99.90
14172;DHT22;7165;52.388;4.928;2023-05-21T05:24:29;14.80;99.90
14172;DHT22;7165;52.388;4.928;2023-05-21T05:26:56;14.80;99.90
14172;DHT22;7165;52.388;4.928;2023-05-21T05:29:22;14.80;99.90
14172;DHT22;7165;52.388;4.928;2023-05-21T05:31:49;14.80;99.90
14172;DHT22;7165;52.388;4.928;2023-05-21T05:34:15;14.80;99.90
14172;DHT22;7165;52.388;4.928;2023-05-21T05:36:42;14.90;99.90
14172;DHT22;7165;52.388;4.928;2023-05-21T05:39:08;15.00;99.90
14172;DHT22;7165;52.388;4.928;2023-05-21T05:41:36;15.00;99.90
14172;DHT22;7165;52.388;4.928;2023-05-21T05:44:03;15.00;99.90
14172;DHT22;7165;52.388;4.928;2023-05-21T05:46:30;15.00;99.90
14172;DHT22;7165;52.388;4.928;2023-05-21T05:48:56;15.10;99.90
14172;DHT22;7165;52.388;4.928;2023-05-21T05:51:23;15.10;99.90
14172;DHT22;7165;52.388;4.928;2023-05-21T05:53:49;15.20;99.90
14172;DHT22;7165;52.388;4.928;2023-05-21T05:56:16;15.30;99.90
14172;DHT22;7165;52.388;4.928;2023-05-21T05:58:44;15.50;99.90
14172;DHT22;7165;52.388;4.928;2023-05-21T06:01:10;15.60;99.90
14172;DHT22;7165;52.388;4.928;2023-05-21T06:03:37;15.60;99.90
14172;DHT22;7165;52.388;4.928;2023-05-21T06:06:04;15.70;99.90
14172;DHT22;7165;52.388;4.928;2023-05-21T06:08:30;15.70;99.90
14172;DHT22;7165;52.388;4.928;2023-05-21T06:10:58;15.70;99.90
14172;DHT22;7165;52.388;4.928;2023-05-21T06:13:25;15.60;99.90
14172;DHT22;7165;52.388;4.928;2023-05-21T06:15:53;15.60;99.90
14172;DHT22;7165;52.388;4.928;2023-05-21T06:18:20;15.60;99.90
14172;DHT22;7165;52.388;4.928;2023-05-21T06:20:46;15.60;99.90
14172;DHT22;7165;52.388;4.928;2023-05-21T06:23:13;15.60;99.90
14172;DHT22;7165;52.388;4.928;2023-05-21T06:25:39;15.50;99.90
14172;DHT22;7165;52.388;4.928;2023-05-21T06:28:06;15.50;99.90
14172;DHT22;7165;52.388;4.928;2023-05-21T06:30:32;15.50;99.90
14172;DHT22;7165;52.388;4.928;2023-05-21T06:33:00;15.50;99.90
14172;DHT22;7165;52.388;4.928;2023-05-21T06:35:27;15.50;99.90
14172;DHT22;7165;52.388;4.928;2023-05-21T06:37:53;15.60;99.90
14172;DHT22;7165;52.388;4.928;2023-05-21T06:40:20;15.60;99.90
14172;DHT22;7165;52.388;4.928;2023-05-21T06:42:47;15.60;99.90
14172;DHT22;7165;52.388;4.928;2023-05-21T06:45:13;15.60;99.90
14172;DHT22;7165;52.388;4.928;2023-05-21T06:47:40;15.50;99.90
14172;DHT22;7165;52.388;4.928;2023-05-21T06:50:08;15.50;99.90
14172;DHT22;7165;52.388;4.928;2023-05-21T06:52:35;15.50;99.90
14172;DHT22;7165;52.388;4.928;2023-05-21T06:55:01;15.60;99.90
14172;DHT22;7165;52.388;4.928;2023-05-21T06:57:28;15.60;99.90
14172;DHT22;7165;52.388;4.928;2023-05-21T06:59:54;15.60;99.90
14172;DHT22;7165;52.388;4.928;2023-05-21T07:02:21;15.70;99.90
14172;DHT22;7165;52.388;4.928;2023-05-21T07:04:48;15.80;99.90
14172;DHT22;7165;52.388;4.928;2023-05-21T07:07:15;15.80;99.90
14172;DHT22;7165;52.388;4.928;2023-05-21T07:09:42;15.90;99.90
14172;DHT22;7165;52.388;4.928;2023-05-21T07:12:09;16.00;99.90
14172;DHT22;7165;52.388;4.928;2023-05-21T07:14:35;16.00;99.90
14172;DHT22;7165;52.388;4.928;2023-05-21T07:17:04;16.20;99.90
14172;DHT22;7165;52.388;4.928;2023-05-21T07:19:31;16.20;99.90
14172;DHT22;7165;52.388;4.928;2023-05-21T07:21:57;16.30;99.90
14172;DHT22;7165;52.388;4.928;2023-05-21T07:24:25;16.30;99.90
14172;DHT22;7165;52.388;4.928;2023-05-21T07:26:52;16.30;99.90
14172;DHT22;7165;52.388;4.928;2023-05-21T07:29:18;16.30;99.90
14172;DHT22;7165;52.388;4.928;2023-05-21T07:31:45;16.30;99.90
14172;DHT22;7165;52.388;4.928;2023-05-21T07:34:12;16.40;99.90
14172;DHT22;7165;52.388;4.928;2023-05-21T07:36:38;16.50;99.90
14172;DHT22;7165;52.388;4.928;2023-05-21T07:39:05;16.50;99.90
14172;DHT22;7165;52.388;4.928;2023-05-21T07:41:33;16.60;99.90
14172;DHT22;7165;52.388;4.928;2023-05-21T07:43:59;16.60;99.90
14172;DHT22;7165;52.388;4.928;2023-05-21T07:46:26;16.70;99.90
14172;DHT22;7165;52.388;4.928;2023-05-21T07:48:53;16.70;99.90
14172;DHT22;7165;52.388;4.928;2023-05-21T07:51:19;16.70;99.90
14172;DHT22;7165;52.388;4.928;2023-05-21T07:53:46;16.70;99.90
14172;DHT22;7165;52.388;4.928;2023-05-21T07:56:13;16.70;99.90
14172;DHT22;7165;52.388;4.928;2023-05-21T07:58:41;16.70;99.90
14172;DHT22;7165;52.388;4.928;2023-05-21T08:01:10;16.80;99.90
14172;DHT22;7165;52.388;4.928;2023-05-21T08:03:36;16.90;99.90
14172;DHT22;7165;52.388;4.928;2023-05-21T08:06:03;16.90;99.90
14172;DHT22;7165;52.388;4.928;2023-05-21T08:08:29;16.90;99.90
14172;DHT22;7165;52.388;4.928;2023-05-21T08:10:56;16.90;99.90
14172;DHT22;7165;52.388;4.928;2023-05-21T08:13:23;16.90;99.90
14172;DHT22;7165;52.388;4.928;2023-05-21T08:15:51;17.00;99.90
14172;DHT22;7165;52.388;4.928;2023-05-21T08:18:18;17.10;99.90
14172;DHT22;7165;52.388;4.928;2023-05-21T08:20:44;17.10;99.90
14172;DHT22;7165;52.388;4.928;2023-05-21T08:23:12;17.20;99.90
14172;DHT22;7165;52.388;4.928;2023-05-21T08:25:39;17.20;99.90
14172;DHT22;7165;52.388;4.928;2023-05-21T08:28:05;17.30;99.90
14172;DHT22;7165;52.388;4.928;2023-05-21T08:30:32;17.30;99.90
14172;DHT22;7165;52.388;4.928;2023-05-21T08:33:00;17.30;99.90
14172;DHT22;7165;52.388;4.928;2023-05-21T08:35:26;17.30;99.90
14172;DHT22;7165;52.388;4.928;2023-05-21T08:37:53;17.30;99.90
14172;DHT22;7165;52.388;4.928;2023-05-21T08:40:20;17.40;99.90
14172;DHT22;7165;52.388;4.928;2023-05-21T08:42:46;17.40;99.90
14172;DHT22;7165;52.388;4.928;2023-05-21T08:45:13;17.50;99.90
14172;DHT22;7165;52.388;4.928;2023-05-21T08:47:41;17.50;99.90
14172;DHT22;7165;52.388;4.928;2023-05-21T08:50:10;17.60;99.90
14172;DHT22;7165;52.388;4.928;2023-05-21T08:52:37;17.60;99.90
14172;DHT22;7165;52.388;4.928;2023-05-21T08:55:04;17.60;99.90
14172;DHT22;7165;52.388;4.928;2023-05-21T08:57:30;17.70;99.90
14172;DHT22;7165;52.388;4.928;2023-05-21T08:59:57;17.90;99.90
14172;DHT22;7165;52.388;4.928;2023-05-21T09:02:23;18.00;99.90
14172;DHT22;7165;52.388;4.928;2023-05-21T09:04:50;18.20;99.90
14172;DHT22;7165;52.388;4.928;2023-05-21T09:07:23;18.20;99.90
14172;DHT22;7165;52.388;4.928;2023-05-21T09:09:51;18.30;99.90
14172;DHT22;7165;52.388;4.928;2023-05-21T09:12:20;18.40;99.90
14172;DHT22;7165;52.388;4.928;2023-05-21T09:14:46;18.50;99.90
14172;DHT22;7165;52.388;4.928;2023-05-21T09:17:13;18.60;99.90
14172;DHT22;7165;52.388;4.928;2023-05-21T09:22:23;18.80;99.90
14172;DHT22;7165;52.388;4.928;2023-05-21T09:24:50;18.90;99.90
14172;DHT22;7165;52.388;4.928;2023-05-21T09:27:16;19.10;99.90
14172;DHT22;7165;52.388;4.928;2023-05-21T09:29:43;19.30;99.90
14172;DHT22;7165;52.388;4.928;2023-05-21T09:32:10;19.40;99.90
14172;DHT22;7165;52.388;4.928;2023-05-21T09:34:37;19.60;99.90
14172;DHT22;7165;52.388;4.928;2023-05-21T09:37:04;19.90;99.90
14172;DHT22;7165;52.388;4.928;2023-05-21T09:39:32;20.00;99.90
14172;DHT22;7165;52.388;4.928;2023-05-21T09:41:59;20.30;99.90
14172;DHT22;7165;52.388;4.928;2023-05-21T09:44:26;20.50;99.90
14172;DHT22;7165;52.388;4.928;2023-05-21T09:46:55;20.60;99.90
14172;DHT22;7165;52.388;4.928;2023-05-21T09:49:22;20.80;99.90
14172;DHT22;7165;52.388;4.928;2023-05-21T09:51:53;20.90;99.90
14172;DHT22;7165;52.388;4.928;2023-05-21T09:54:20;21.10;99.90
14172;DHT22;7165;52.388;4.928;2023-05-21T09:56:48;21.10;99.90
14172;DHT22;7165;52.388;4.928;2023-05-21T09:59:14;21.20;99.90
14172;DHT22;7165;52.388;4.928;2023-05-21T10:01:41;21.20;99.90
14172;DHT22;7165;52.388;4.928;2023-05-21T10:04:08;21.10;99.90
14172;DHT22;7165;52.388;4.928;2023-05-21T10:06:36;21.00;99.90
14172;DHT22;7165;52.388;4.928;2023-05-21T10:09:04;21.10;99.90
14172;DHT22;7165;52.388;4.928;2023-05-21T10:11:32;21.10;99.90
14172;DHT22;7165;52.388;4.928;2023-05-21T10:14:03;21.30;99.90
14172;DHT22;7165;52.388;4.928;2023-05-21T10:16:31;21.40;99.90
14172;DHT22;7165;52.388;4.928;2023-05-21T10:18:58;21.40;99.90
14172;DHT22;7165;52.388;4.928;2023-05-21T10:21:25;21.30;99.90
14172;DHT22;7165;52.388;4.928;2023-05-21T10:23:52;21.20;99.90
14172;DHT22;7165;52.388;4.928;2023-05-21T10:26:21;21.50;99.90
14172;DHT22;7165;52.388;4.928;2023-05-21T10:28:50;21.60;99.90
14172;DHT22;7165;52.388;4.928;2023-05-21T10:31:19;21.50;99.90
14172;DHT22;7165;52.388;4.928;2023-05-21T10:33:46;21.70;99.90
14172;DHT22;7165;52.388;4.928;2023-05-21T10:36:15;21.90;99.90
14172;DHT22;7165;52.388;4.928;2023-05-21T10:38:43;21.90;99.90
14172;DHT22;7165;52.388;4.928;2023-05-21T10:41:10;22.10;99.90
14172;DHT22;7165;52.388;4.928;2023-05-21T10:43:42;22.10;99.90
14172;DHT22;7165;52.388;4.928;2023-05-21T10:49:03;21.90;99.90
14172;DHT22;7165;52.388;4.928;2023-05-21T10:51:35;21.80;99.90
14172;DHT22;7165;52.388;4.928;2023-05-21T10:54:17;21.70;99.90
14172;DHT22;7165;52.388;4.928;2023-05-21T10:56:51;21.40;99.90
14172;DHT22;7165;52.388;4.928;2023-05-21T10:59:24;21.20;99.90
14172;DHT22;7165;52.388;4.928;2023-05-21T11:01:57;21.40;99.90
14172;DHT22;7165;52.388;4.928;2023-05-21T11:04:26;21.60;99.90
14172;DHT22;7165;52.388;4.928;2023-05-21T11:06:52;21.80;99.90
14172;DHT22;7165;52.388;4.928;2023-05-21T11:09:20;21.80;99.90
14172;DHT22;7165;52.388;4.928;2023-05-21T11:11:48;21.80;99.90
14172;DHT22;7165;52.388;4.928;2023-05-21T11:14:31;21.80;99.90
14172;DHT22;7165;52.388;4.928;2023-05-21T11:16:59;21.70;99.90
14172;DHT22;7165;52.388;4.928;2023-05-21T11:19:34;21.60;99.90
14172;DHT22;7165;52.388;4.928;2023-05-21T11:22:03;21.80;99.90
14172;DHT22;7165;52.388;4.928;2023-05-21T11:24:31;21.70;99.90
14172;DHT22;7165;52.388;4.928;2023-05-21T11:26:58;21.40;99.90
14172;DHT22;7165;52.388;4.928;2023-05-21T11:29:42;21.40;99.90
14172;DHT22;7165;52.388;4.928;2023-05-21T11:32:12;21.30;99.90
14172;DHT22;7165;52.388;4.928;2023-05-21T11:34:41;21.40;99.90
14172;DHT22;7165;52.388;4.928;2023-05-21T11:39:51;21.40;99.90
14172;DHT22;7165;52.388;4.928;2023-05-21T11:42:26;21.30;99.90
14172;DHT22;7165;52.388;4.928;2023-05-21T11:44:52;21.10;99.90
14172;DHT22;7165;52.388;4.928;2023-05-21T11:47:21;20.90;99.90
14172;DHT22;7165;52.388;4.928;2023-05-21T11:49:49;21.00;99.90
14172;DHT22;7165;52.388;4.928;2023-05-21T11:52:16;21.30;99.90
14172;DHT22;7165;52.388;4.928;2023-05-21T11:54:44;21.60;99.90
14172;DHT22;7165;52.388;4.928;2023-05-21T11:57:12;21.70;99.90
14172;DHT22;7165;52.388;4.928;2023-05-21T11:59:40;21.90;99.90
14172;DHT22;7165;52.388;4.928;2023-05-21T12:02:07;21.90;99.90
14172;DHT22;7165;52.388;4.928;2023-05-21T12:04:34;21.90;99.90
14172;DHT22;7165;52.388;4.928;2023-05-21T12:07:03;22.00;99.90
14172;DHT22;7165;52.388;4.928;2023-05-21T12:09:37;22.20;99.90
14172;DHT22;7165;52.388;4.928;2023-05-21T12:12:04;22.30;99.90
14172;DHT22;7165;52.388;4.928;2023-05-21T12:14:30;22.30;99.90
14172;DHT22;7165;52.388;4.928;2023-05-21T12:16:57;22.30;99.90
14172;DHT22;7165;52.388;4.928;2023-05-21T12:19:24;22.40;99.90
14172;DHT22;7165;52.388;4.928;2023-05-21T12:21:50;22.40;99.90
14172;DHT22;7165;52.388;4.928;2023-05-21T12:24:18;22.30;99.90
14172;DHT22;7165;52.388;4.928;2023-05-21T12:26:45;22.30;99.90
14172;DHT22;7165;52.388;4.928;2023-05-21T12:29:12;22.10;99.90
14172;DHT22;7165;52.388;4.928;2023-05-21T12:31:45;22.10;99.90
14172;DHT22;7165;52.388;4.928;2023-05-21T12:34:12;21.90;99.90
14172;DHT22;7165;52.388;4.928;2023-05-21T12:36:41;21.90;99.90
14172;DHT22;7165;52.388;4.928;2023-05-21T12:39:10;22.00;99.90
14172;DHT22;7165;52.388;4.928;2023-05-21T12:41:38;22.20;99.90
14172;DHT22;7165;52.388;4.928;2023-05-21T12:44:04;22.30;99.90
14172;DHT22;7165;52.388;4.928;2023-05-21T12:46:33;22.40;99.90
14172;DHT22;7165;52.388;4.928;2023-05-21T12:48:59;22.20;99.90
14172;DHT22;7165;52.388;4.928;2023-05-21T12:51:35;21.90;99.90
14172;DHT22;7165;52.388;4.928;2023-05-21T12:54:02;21.70;99.90
14172;DHT22;7165;52.388;4.928;2023-05-21T12:56:29;21.70;99.90
14172;DHT22;7165;52.388;4.928;2023-05-21T12:59:12;21.70;99.90
14172;DHT22;7165;52.388;4.928;2023-05-21T13:01:39;21.90;99.90
14172;DHT22;7165;52.388;4.928;2023-05-21T13:04:06;21.80;99.90
14172;DHT22;7165;52.388;4.928;2023-05-21T13:06:40;21.90;99.90
14172;DHT22;7165;52.388;4.928;2023-05-21T13:09:07;22.10;99.90
14172;DHT22;7165;52.388;4.928;2023-05-21T13:11:33;22.20;99.90
14172;DHT22;7165;52.388;4.928;2023-05-21T13:14:00;22.30;99.90
14172;DHT22;7165;52.388;4.928;2023-05-21T13:16:28;22.40;99.90
14172;DHT22;7165;52.388;4.928;2023-05-21T13:18:54;22.50;99.90
14172;DHT22;7165;52.388;4.928;2023-05-21T13:21:21;22.50;99.90
14172;DHT22;7165;52.388;4.928;2023-05-21T13:23:48;22.50;99.90
14172;DHT22;7165;52.388;4.928;2023-05-21T13:26:14;22.60;99.90
14172;DHT22;7165;52.388;4.928;2023-05-21T13:28:41;22.80;99.90
14172;DHT22;7165;52.388;4.928;2023-05-21T13:31:07;22.70;99.90
14172;DHT22;7165;52.388;4.928;2023-05-21T13:33:37;22.70;99.90
14172;DHT22;7165;52.388;4.928;2023-05-21T13:36:04;22.50;99.90
14172;DHT22;7165;52.388;4.928;2023-05-21T13:38:30;22.60;99.90
14172;DHT22;7165;52.388;4.928;2023-05-21T13:40:57;22.70;99.90
14172;DHT22;7165;52.388;4.928;2023-05-21T13:43:24;22.70;99.90
14172;DHT22;7165;52.388;4.928;2023-05-21T13:45:50;22.70;99.90
14172;DHT22;7165;52.388;4.928;2023-05-21T13:48:17;22.70;99.90
14172;DHT22;7165;52.388;4.928;2023-05-21T13:50:45;22.80;99.90
14172;DHT22;7165;52.388;4.928;2023-05-21T13:53:11;22.90;99.90
14172;DHT22;7165;52.388;4.928;2023-05-21T13:55:38;23.00;99.90
14172;DHT22;7165;52.388;4.928;2023-05-21T13:58:04;23.00;99.90
14172;DHT22;7165;52.388;4.928;2023-05-21T14:00:31;22.90;99.90
14172;DHT22;7165;52.388;4.928;2023-05-21T14:02:57;23.10;99.90
14172;DHT22;7165;52.388;4.928;2023-05-21T14:05:24;23.20;99.90
14172;DHT22;7165;52.388;4.928;2023-05-21T14:07:52;23.10;99.90
14172;DHT22;7165;52.388;4.928;2023-05-21T14:10:18;23.00;99.90
14172;DHT22;7165;52.388;4.928;2023-05-21T14:12:45;23.10;99.90
14172;DHT22;7165;52.388;4.928;2023-05-21T14:15:12;23.50;99.90
14172;DHT22;7165;52.388;4.928;2023-05-21T14:17:39;23.50;99.90
14172;DHT22;7165;52.388;4.928;2023-05-21T14:20:06;23.50;99.90
14172;DHT22;7165;52.388;4.928;2023-05-21T14:22:33;23.50;99.90
14172;DHT22;7165;52.388;4.928;2023-05-21T14:25:01;23.60;99.90
14172;DHT22;7165;52.388;4.928;2023-05-21T14:27:28;23.40;99.90
14172;DHT22;7165;52.388;4.928;2023-05-21T14:29:55;23.40;99.90
14172;DHT22;7165;52.388;4.928;2023-05-21T14:32:21;23.60;99.90
14172;DHT22;7165;52.388;4.928;2023-05-21T14:34:48;23.50;99.90
14172;DHT22;7165;52.388;4.928;2023-05-21T14:37:14;23.40;99.90
14172;DHT22;7165;52.388;4.928;2023-05-21T14:39:41;23.70;99.90
14172;DHT22;7165;52.388;4.928;2023-05-21T14:42:09;23.80;99.90
14172;DHT22;7165;52.388;4.928;2023-05-21T14:44:35;23.70;99.90
14172;DHT22;7165;52.388;4.928;2023-05-21T14:47:02;23.70;99.90
14172;DHT22;7165;52.388;4.928;2023-05-21T14:49:29;24.10;99.90
14172;DHT22;7165;52.388;4.928;2023-05-21T14:51:55;24.20;99.90
14172;DHT22;7165;52.388;4.928;2023-05-21T14:54:22;24.40;99.90
14172;DHT22;7165;52.388;4.928;2023-05-21T14:56:48;24.30;99.90
14172;DHT22;7165;52.388;4.928;2023-05-21T14:59:16;24.40;99.90
14172;DHT22;7165;52.388;4.928;2023-05-21T15:01:42;25.00;99.90
14172;DHT22;7165;52.388;4.928;2023-05-21T15:04:09;25.70;99.90
14172;DHT22;7165;52.388;4.928;2023-05-21T15:06:36;25.90;99.90
14172;DHT22;7165;52.388;4.928;2023-05-21T15:09:02;26.30;99.90
14172;DHT22;7165;52.388;4.928;2023-05-21T15:11:29;27.40;99.90
14172;DHT22;7165;52.388;4.928;2023-05-21T15:13:55;28.70;99.90
14172;DHT22;7165;52.388;4.928;2023-05-21T15:16:23;29.70;99.90
14172;DHT22;7165;52.388;4.928;2023-05-21T15:18:50;30.30;99.90
14172;DHT22;7165;52.388;4.928;2023-05-21T15:21:16;30.40;99.70
14172;DHT22;7165;52.388;4.928;2023-05-21T15:23:43;30.60;99.10
14172;DHT22;7165;52.388;4.928;2023-05-21T15:26:09;30.60;98.90
14172;DHT22;7165;52.388;4.928;2023-05-21T15:28:36;30.20;98.70
14172;DHT22;7165;52.388;4.928;2023-05-21T15:31:02;30.10;98.10
14172;DHT22;7165;52.388;4.928;2023-05-21T15:33:30;30.00;98.50
14172;DHT22;7165;52.388;4.928;2023-05-21T15:35:57;30.00;98.70
14172;DHT22;7165;52.388;4.928;2023-05-21T15:38:23;29.90;98.10
14172;DHT22;7165;52.388;4.928;2023-05-21T15:40:50;30.20;98.20
14172;DHT22;7165;52.388;4.928;2023-05-21T15:43:17;30.00;97.70
14172;DHT22;7165;52.388;4.928;2023-05-21T15:45:43;29.00;98.90
14172;DHT22;7165;52.388;4.928;2023-05-21T15:48:10;28.30;99.90
14172;DHT22;7165;52.388;4.928;2023-05-21T15:50:38;27.90;99.90
14172;DHT22;7165;52.388;4.928;2023-05-21T15:53:05;27.70;99.90